createdAt,value
2022-08-21T00:00:22.661Z,99.90
2022-08-21T00:02:51.665Z,99.90
2022-08-21T00:05:18.554Z,99.90
2022-08-21T00:07:45.258Z,99.90
2022-08-21T00:10:12.329Z,99.90
2022-08-21T00:12:39.158Z,99.90
2022-08-21T00:15:08.576Z,99.90
2022-08-21T00:17:35.478Z,99.90
2022-08-21T00:20:02.346Z,99.90
2022-08-21T00:22:29.019Z,99.90
2022-08-21T00:24:55.755Z,99.90
2022-08-21T00:27:23.084Z,99.90
2022-08-21T00:29:49.808Z,99.90
2022-08-21T00:32:20.759Z,99.90
2022-08-21T00:34:47.411Z,99.90
2022-08-21T00:37:14.071Z,99.90
2022-08-21T00:39:41.024Z,99.90
2022-08-21T00:42:07.884Z,99.90
2022-08-21T00:44:34.536Z,99.90
2022-08-21T00:47:01.237Z,99.90
2022-08-21T00:49:27.928Z,99.90
2022-08-21T00:51:56.450Z,99.90
2022-08-21T00:54:25.576Z,99.90
2022-08-21T00:56:55.284Z,99.90
2022-08-21T00:59:22.810Z,99.90
2022-08-21T01:01:50.718Z,99.90
2022-08-21T01:04:17.771Z,99.90
2022-08-21T01:06:44.626Z,99.90
2022-08-21T01:09:11.729Z,99.90
2022-08-21T01:11:38.623Z,99.90
2022-08-21T01:14:05.292Z,99.90
2022-08-21T01:16:32.084Z,99.90
2022-08-21T01:18:58.745Z,99.90
2022-08-21T01:21:28.223Z,99.90
2022-08-21T01:23:56.085Z,99.90
2022-08-21T01:26:24.845Z,99.90
2022-08-21T01:29:03.987Z,99.90
2022-08-21T01:31:32.439Z,99.90
2022-08-21T01:33:59.461Z,99.90
2022-08-21T01:36:26.649Z,99.90
2022-08-21T01:38:53.414Z,99.90
2022-08-21T01:41:20.143Z,99.90
2022-08-21T01:43:47.105Z,99.90
2022-08-21T01:46:14.463Z,99.90
2022-08-21T01:48:41.751Z,99.90
2022-08-21T01:51:08.819Z,99.90
2022-08-21T01:53:37.611Z,99.90
2022-08-21T01:56:05.770Z,99.90
2022-08-21T01:58:39.446Z,99.90
2022-08-21T02:01:06.240Z,99.90
2022-08-21T02:03:35.619Z,99.90
2022-08-21T02:06:03.833Z,99.90
2022-08-21T02:08:30.898Z,99.90
2022-08-21T02:10:57.610Z,99.90
2022-08-21T02:13:24.295Z,99.90
2022-08-21T02:15:50.953Z,99.90
2022-08-21T02:18:17.615Z,99.90
2022-08-21T02:20:46.297Z,99.90
2022-08-21T02:23:13.491Z,99.90
2022-08-21T02:25:40.722Z,99.90
2022-08-21T02:28:09.678Z,99.90
2022-08-21T02:30:38.978Z,99.90
2022-08-21T02:33:06.056Z,99.90
2022-08-21T02:35:32.773Z,99.90
2022-08-21T02:38:00.947Z,99.90
2022-08-21T02:40:29.268Z,99.90
2022-08-21T02:42:55.919Z,99.90
2022-08-21T02:45:22.618Z,99.90
2022-08-21T02:47:53.241Z,99.90
2022-08-21T02:50:26.011Z,99.90
2022-08-21T02:52:55.092Z,99.90
2022-08-21T02:55:27.158Z,99.90
2022-08-21T02:57:54.631Z,99.90
2022-08-21T03:00:22.012Z,99.90
2022-08-21T03:02:49.273Z,99.90
2022-08-21T03:05:16.679Z,99.90
2022-08-21T03:07:44.150Z,99.90
2022-08-21T03:10:10.792Z,99.90
2022-08-21T03:12:37.623Z,99.90
2022-08-21T03:15:09.987Z,99.90
2022-08-21T03:17:36.662Z,99.90
2022-08-21T03:20:04.288Z,99.90
2022-08-21T03:22:31.083Z,99.90
2022-08-21T03:24:58.355Z,99.90
2022-08-21T03:27:25.550Z,99.90
2022-08-21T03:29:52.183Z,99.90
2022-08-21T03:32:18.855Z,99.90
2022-08-21T03:34:45.490Z,99.90
2022-08-21T03:37:12.790Z,99.90
2022-08-21T03:39:39.662Z,99.90
2022-08-21T03:42:07.199Z,99.90
2022-08-21T03:44:34.126Z,99.90
2022-08-21T03:47:01.080Z,99.90
2022-08-21T03:49:28.449Z,99.90
2022-08-21T03:51:59.602Z,99.90
2022-08-21T03:54:26.772Z,99.90
2022-08-21T03:56:55.615Z,99.90
2022-08-21T03:59:22.276Z,99.90
2022-08-21T04:01:56.125Z,99.90
2022-08-21T04:04:22.922Z,99.90
2022-08-21T04:06:50.763Z,99.90
2022-08-21T04:09:18.356Z,99.90
2022-08-21T04:11:46.612Z,99.90
2022-08-21T04:14:14.379Z,99.90
2022-08-21T04:16:41.995Z,99.90
2022-08-21T04:19:09.134Z,99.90
2022-08-21T04:21:37.458Z,99.90
2022-08-21T04:24:04.927Z,99.90
2022-08-21T04:26:32.033Z,99.90
2022-08-21T04:28:58.904Z,99.90
2022-08-21T04:31:25.881Z,99.90
2022-08-21T04:33:52.547Z,99.90
2022-08-21T04:36:23.034Z,99.90
2022-08-21T04:38:51.389Z,99.90
2022-08-21T04:41:18.197Z,99.90
2022-08-21T04:43:56.141Z,99.90
2022-08-21T04:46:23.346Z,99.90
2022-08-21T04:48:50.164Z,99.90
2022-08-21T04:51:18.415Z,99.90
2022-08-21T04:53:47.689Z,99.90
2022-08-21T04:56:20.545Z,99.90
2022-08-21T04:58:49.704Z,99.90
2022-08-21T05:01:19.843Z,99.90
2022-08-21T05:03:48.302Z,99.90
2022-08-21T05:06:15.965Z,99.90
2022-08-21T05:08:44.562Z,99.90
2022-08-21T05:11:11.749Z,99.90
2022-08-21T05:13:38.513Z,99.90
2022-08-21T05:16:05.330Z,99.90
2022-08-21T05:18:31.984Z,99.90
2022-08-21T05:20:58.697Z,99.90
2022-08-21T05:23:25.939Z,99.90
2022-08-21T05:25:53.569Z,99.90
2022-08-21T05:28:20.449Z,99.90
2022-08-21T05:30:47.105Z,99.90
2022-08-21T05:33:13.777Z,99.90
2022-08-21T05:35:40.635Z,99.90
2022-08-21T05:38:07.561Z,99.90
2022-08-21T05:40:45.060Z,99.90
2022-08-21T05:43:11.771Z,99.90
2022-08-21T05:45:42.656Z,99.90
2022-08-21T05:48:24.734Z,99.90
2022-08-21T05:50:52.677Z,99.90
2022-08-21T05:53:20.130Z,99.90
2022-08-21T05:55:47.327Z,99.90
2022-08-21T05:58:18.436Z,99.90
2022-08-21T06:00:45.461Z,99.10
2022-08-21T06:03:32.355Z,97.90
2022-08-21T06:05:59.434Z,96.00
2022-08-21T06:08:26.374Z,93.20
2022-08-21T06:10:53.677Z,90.70
2022-08-21T06:13:20.741Z,85.20
2022-08-21T06:15:47.454Z,79.20
2022-08-21T06:18:14.218Z,76.40
2022-08-21T06:20:41.022Z,76.20
2022-08-21T06:23:08.113Z,75.60
2022-08-21T06:25:35.547Z,73.10
2022-08-21T06:28:09.483Z,70.80
2022-08-21T06:30:37.709Z,70.00
2022-08-21T06:33:04.745Z,71.00
2022-08-21T06:35:31.498Z,69.60
2022-08-21T06:37:58.529Z,68.50
2022-08-21T06:40:25.807Z,67.40
2022-08-21T06:42:52.539Z,67.50
2022-08-21T06:45:19.195Z,67.50
2022-08-21T06:47:45.884Z,68.10
2022-08-21T06:50:13.509Z,67.50
2022-08-21T06:52:40.244Z,66.30
2022-08-21T06:55:08.091Z,66.20
2022-08-21T06:57:34.886Z,67.10
2022-08-21T07:00:01.730Z,66.90
2022-08-21T07:02:28.413Z,64.10
2022-08-21T07:04:55.114Z,63.70
2022-08-21T07:07:21.823Z,62.80
2022-08-21T07:09:48.553Z,62.20
2022-08-21T07:12:15.428Z,61.60
2022-08-21T07:14:42.414Z,62.20
2022-08-21T07:17:12.082Z,63.10
2022-08-21T07:19:38.765Z,61.90
2022-08-21T07:22:05.548Z,62.10
2022-08-21T07:24:32.215Z,62.40
2022-08-21T07:26:58.881Z,61.50
2022-08-21T07:29:25.542Z,60.40
2022-08-21T07:31:52.217Z,59.60
2022-08-21T07:34:18.897Z,57.90
2022-08-21T07:36:45.843Z,57.00
2022-08-21T07:39:12.823Z,58.80
2022-08-21T07:41:39.520Z,58.40
2022-08-21T07:44:06.587Z,58.10
2022-08-21T07:46:33.372Z,58.40
2022-08-21T07:49:00.088Z,58.40
2022-08-21T07:51:28.202Z,57.20
2022-08-21T07:53:56.274Z,57.50
2022-08-21T07:56:25.967Z,56.40
2022-08-21T07:58:52.734Z,55.20
2022-08-21T08:01:19.701Z,56.30
2022-08-21T08:03:46.518Z,56.40
2022-08-21T08:06:17.698Z,54.80
2022-08-21T08:08:44.368Z,55.60
2022-08-21T08:11:12.167Z,55.30
2022-08-21T08:13:39.861Z,54.90
2022-08-21T08:16:06.710Z,56.00
2022-08-21T08:18:33.395Z,53.70
2022-08-21T08:21:00.360Z,54.50
2022-08-21T08:23:28.306Z,53.80
2022-08-21T08:25:54.963Z,55.70
2022-08-21T08:28:22.823Z,56.40
2022-08-21T08:30:50.505Z,53.50
2022-08-21T08:33:17.986Z,54.50
2022-08-21T08:35:46.584Z,55.60
2022-08-21T08:38:13.298Z,59.10
2022-08-21T08:40:46.922Z,57.30
2022-08-21T08:43:14.833Z,58.00
2022-08-21T08:45:45.123Z,58.50
2022-08-21T08:48:13.998Z,60.20
2022-08-21T08:51:00.894Z,57.40
2022-08-21T08:53:31.113Z,58.60
2022-08-21T08:55:58.579Z,56.30
2022-08-21T08:58:33.854Z,58.50
2022-08-21T09:01:01.075Z,59.70
2022-08-21T09:03:28.390Z,58.70
2022-08-21T09:05:54.986Z,57.70
2022-08-21T09:08:24.404Z,56.00
2022-08-21T09:10:56.965Z,55.20
2022-08-21T09:13:38.743Z,57.20
2022-08-21T09:16:15.071Z,54.50
2022-08-21T09:18:55.428Z,55.90
2022-08-21T09:21:25.122Z,54.10
2022-08-21T09:24:00.678Z,55.10
2022-08-21T09:26:30.455Z,56.00
2022-08-21T09:28:59.013Z,53.70
2022-08-21T09:31:26.102Z,54.30
2022-08-21T09:34:00.182Z,55.90
2022-08-21T09:36:34.160Z,54.60
2022-08-21T09:39:00.831Z,55.50
2022-08-21T09:41:32.021Z,53.80
2022-08-21T09:43:59.212Z,52.20
2022-08-21T09:46:26.947Z,52.60
2022-08-21T09:48:55.024Z,50.90
2022-08-21T09:51:23.654Z,51.70
2022-08-21T09:54:10.239Z,52.80
2022-08-21T09:56:58.576Z,54.30
2022-08-21T09:59:36.432Z,54.50
2022-08-21T10:02:20.811Z,54.20
2022-08-21T10:04:55.113Z,52.70
2022-08-21T10:07:23.062Z,54.50
2022-08-21T10:10:04.198Z,56.20
2022-08-21T10:12:34.065Z,55.50
2022-08-21T10:15:08.215Z,56.10
2022-08-21T10:17:44.339Z,53.70
2022-08-21T10:20:11.344Z,53.20
2022-08-21T10:23:02.413Z,54.40
2022-08-21T10:25:29.340Z,55.30
2022-08-21T10:28:05.048Z,54.80
2022-08-21T10:30:37.862Z,57.20
2022-08-21T10:33:07.468Z,58.90
2022-08-21T10:35:53.209Z,58.20
2022-08-21T10:38:46.277Z,58.30
2022-08-21T10:41:14.132Z,59.00
2022-08-21T10:43:53.134Z,60.60
2022-08-21T10:46:19.835Z,59.70
2022-08-21T10:48:46.455Z,59.00
2022-08-21T10:51:13.084Z,59.20
2022-08-21T10:53:47.261Z,58.70
2022-08-21T10:56:18.961Z,58.30
2022-08-21T10:58:52.443Z,55.60
2022-08-21T11:01:25.713Z,57.40
2022-08-21T11:03:55.012Z,59.10
2022-08-21T11:06:27.731Z,57.20
2022-08-21T11:08:58.375Z,58.70
2022-08-21T11:11:34.813Z,58.20
2022-08-21T11:14:05.861Z,60.50
2022-08-21T11:16:35.424Z,57.20
2022-08-21T11:19:22.296Z,61.10
2022-08-21T11:22:03.376Z,58.10
2022-08-21T11:24:31.154Z,57.50
2022-08-21T11:27:17.705Z,59.40
2022-08-21T11:29:45.718Z,58.60
2022-08-21T11:32:21.302Z,59.40
2022-08-21T11:34:47.899Z,59.10
2022-08-21T11:37:17.304Z,59.20
2022-08-21T11:39:46.855Z,59.70
2022-08-21T11:42:20.968Z,61.30
2022-08-21T11:44:57.349Z,61.20
2022-08-21T11:47:23.948Z,60.20
2022-08-21T11:49:58.510Z,59.60
2022-08-21T11:52:30.253Z,60.30
2022-08-21T11:55:00.868Z,60.80
2022-08-21T11:57:30.689Z,61.30
2022-08-21T12:00:03.985Z,61.00
2022-08-21T12:02:33.168Z,60.60
2022-08-21T12:05:08.615Z,59.80
2022-08-21T12:07:38.816Z,57.60
2022-08-21T12:10:07.881Z,62.20
2022-08-21T12:12:36.294Z,59.10
2022-08-21T12:15:08.837Z,58.90
2022-08-21T12:17:37.893Z,58.60
2022-08-21T12:20:28.262Z,61.60
2022-08-21T12:23:02.906Z,62.30
2022-08-21T12:25:37.578Z,61.10
2022-08-21T12:28:12.870Z,61.90
2022-08-21T12:30:41.899Z,61.30
2022-08-21T12:33:30.093Z,62.10
2022-08-21T12:36:06.278Z,61.20
2022-08-21T12:38:43.264Z,58.40
2022-08-21T12:41:33.517Z,60.30
2022-08-21T12:44:04.986Z,59.40
2022-08-21T12:46:40.242Z,58.70
2022-08-21T12:49:16.053Z,59.50
2022-08-21T12:51:54.619Z,58.30
2022-08-21T12:54:23.839Z,58.80
2022-08-21T12:56:56.920Z,59.70
2022-08-21T12:59:23.589Z,60.70
2022-08-21T13:01:51.370Z,57.20
2022-08-21T13:04:21.292Z,59.50
2022-08-21T13:06:49.220Z,57.50
2022-08-21T13:09:17.747Z,57.00
2022-08-21T13:11:45.975Z,58.40
2022-08-21T13:14:35.893Z,57.20
2022-08-21T13:17:12.580Z,58.30
2022-08-21T13:19:39.288Z,58.10
2022-08-21T13:22:34.292Z,57.20
2022-08-21T13:24:59.758Z,56.70
2022-08-21T13:27:31.014Z,56.00
2022-08-21T13:30:21.492Z,55.10
2022-08-21T13:32:49.614Z,55.90
2022-08-21T13:35:16.305Z,55.30
2022-08-21T13:37:43.758Z,55.70
2022-08-21T13:40:11.856Z,57.40
2022-08-21T13:42:40.263Z,55.40
2022-08-21T13:45:12.185Z,55.10
2022-08-21T13:47:38.866Z,54.00
2022-08-21T13:50:06.462Z,55.40
2022-08-21T13:52:33.125Z,57.20
2022-08-21T13:55:02.280Z,56.10
2022-08-21T13:57:34.495Z,56.00
2022-08-21T14:00:36.205Z,57.50
2022-08-21T14:03:07.629Z,57.60
2022-08-21T14:05:36.267Z,54.80
2022-08-21T14:08:05.695Z,56.30
2022-08-21T14:10:32.528Z,55.40
2022-08-21T14:13:01.970Z,56.00
2022-08-21T14:15:29.867Z,56.30
2022-08-21T14:18:08.096Z,55.00
2022-08-21T14:20:35.878Z,55.30
2022-08-21T14:23:02.689Z,56.70
2022-08-21T14:25:31.666Z,55.80
2022-08-21T14:28:00.031Z,54.70
2022-08-21T14:30:45.028Z,55.00
2022-08-21T14:33:19.439Z,55.50
2022-08-21T14:35:46.092Z,55.30
2022-08-21T14:38:14.354Z,54.00
2022-08-21T14:40:41.496Z,55.10
2022-08-21T14:43:09.323Z,54.90
2022-08-21T14:45:37.574Z,55.30
2022-08-21T14:48:04.303Z,54.90
2022-08-21T14:50:31.677Z,54.40
2022-08-21T14:52:58.532Z,54.80
2022-08-21T14:55:25.451Z,55.30
2022-08-21T14:57:53.036Z,54.10
2022-08-21T15:00:23.060Z,53.90
2022-08-21T15:02:53.738Z,53.60
2022-08-21T15:05:32.892Z,52.70
2022-08-21T15:08:00.517Z,52.60
2022-08-21T15:10:27.219Z,54.20
2022-08-21T15:12:53.978Z,54.50
2022-08-21T15:15:20.741Z,54.50
2022-08-21T15:17:48.454Z,54.40
2022-08-21T15:20:15.851Z,54.10
2022-08-21T15:22:47.647Z,53.40
2022-08-21T15:25:14.987Z,53.10
2022-08-21T15:27:41.798Z,53.80
2022-08-21T15:30:08.695Z,53.40
2022-08-21T15:32:35.388Z,54.40
2022-08-21T15:35:03.293Z,54.10
2022-08-21T15:37:30.206Z,55.00
2022-08-21T15:39:57.157Z,53.50
2022-08-21T15:42:25.293Z,52.10
2022-08-21T15:44:52.541Z,53.00
2022-08-21T15:47:22.609Z,53.10
2022-08-21T15:49:49.412Z,51.70
2022-08-21T15:52:17.720Z,51.60
2022-08-21T15:54:44.429Z,52.20
2022-08-21T15:57:13.035Z,53.10
2022-08-21T15:59:43.151Z,52.10
2022-08-21T16:02:21.022Z,51.70
2022-08-21T16:04:48.188Z,49.20
2022-08-21T16:07:14.939Z,49.30
2022-08-21T16:09:41.771Z,51.00
2022-08-21T16:12:09.024Z,50.80
2022-08-21T16:14:37.232Z,51.60
2022-08-21T16:17:07.720Z,53.20
2022-08-21T16:19:34.538Z,53.00
2022-08-21T16:22:01.177Z,53.20
2022-08-21T16:24:27.899Z,53.90
2022-08-21T16:26:58.233Z,52.70
2022-08-21T16:29:26.266Z,53.80
2022-08-21T16:31:54.466Z,54.90
2022-08-21T16:34:21.243Z,53.60
2022-08-21T16:36:48.038Z,54.20
2022-08-21T16:39:14.951Z,53.70
2022-08-21T16:41:41.623Z,54.40
2022-08-21T16:44:08.667Z,55.10
2022-08-21T16:46:40.182Z,54.90
2022-08-21T16:49:07.982Z,55.20
2022-08-21T16:51:34.643Z,54.20
2022-08-21T16:54:01.366Z,55.40
2022-08-21T16:56:28.070Z,56.10
2022-08-21T16:58:55.472Z,55.80
2022-08-21T17:01:24.935Z,56.60
2022-08-21T17:03:51.861Z,55.30
2022-08-21T17:06:18.960Z,57.20
2022-08-21T17:08:45.637Z,58.10
2022-08-21T17:11:36.606Z,59.50
2022-08-21T17:14:05.263Z,60.60
2022-08-21T17:16:32.180Z,58.30
2022-08-21T17:18:58.870Z,57.20
2022-08-21T17:21:25.524Z,57.50
2022-08-21T17:23:52.306Z,59.20
2022-08-21T17:26:19.555Z,60.80
2022-08-21T17:28:47.097Z,61.40
2022-08-21T17:31:14.218Z,62.00
2022-08-21T17:33:50.335Z,62.20
2022-08-21T17:36:28.335Z,63.60
2022-08-21T17:38:57.340Z,64.80
2022-08-21T17:41:24.611Z,67.30
2022-08-21T17:43:51.629Z,68.30
2022-08-21T17:46:22.862Z,69.30
2022-08-21T17:48:49.579Z,70.30
2022-08-21T17:51:16.989Z,71.70
2022-08-21T17:53:44.953Z,72.90
2022-08-21T17:56:13.214Z,74.40
2022-08-21T17:58:48.379Z,78.30
2022-08-21T18:01:15.226Z,80.20
2022-08-21T18:03:42.070Z,81.40
2022-08-21T18:06:08.859Z,83.90
2022-08-21T18:08:35.577Z,85.00
2022-08-21T18:11:02.520Z,85.70
2022-08-21T18:13:30.753Z,87.30
2022-08-21T18:15:58.220Z,87.90
2022-08-21T18:18:25.760Z,89.80
2022-08-21T18:20:53.142Z,91.00
2022-08-21T18:23:19.774Z,92.50
2022-08-21T18:25:59.777Z,94.20
2022-08-21T18:28:26.677Z,95.50
2022-08-21T18:30:54.308Z,96.70
2022-08-21T18:33:21.448Z,97.60
2022-08-21T18:35:48.342Z,98.70
2022-08-21T18:38:16.937Z,99.30
2022-08-21T18:40:45.495Z,99.90
2022-08-21T18:43:15.680Z,99.90
2022-08-21T18:45:42.531Z,99.90
2022-08-21T18:48:10.537Z,99.90
2022-08-21T18:50:38.999Z,99.90
2022-08-21T18:53:18.010Z,99.90
2022-08-21T18:55:53.111Z,99.90
2022-08-21T18:58:19.777Z,99.90
2022-08-21T19:00:48.097Z,99.90
2022-08-21T19:03:21.877Z,99.90
2022-08-21T19:05:51.219Z,99.90
2022-08-21T19:08:18.914Z,99.90
2022-08-21T19:10:46.546Z,99.90
2022-08-21T19:13:14.849Z,99.90
2022-08-21T19:15:42.131Z,99.90
2022-08-21T19:18:12.875Z,99.90
2022-08-21T19:20:42.170Z,99.90
2022-08-21T19:23:11.148Z,99.90
2022-08-21T19:25:40.033Z,99.90
2022-08-21T19:28:10.897Z,99.90
2022-08-21T19:30:39.327Z,99.90
2022-08-21T19:33:07.705Z,99.90
2022-08-21T19:35:34.632Z,99.90
2022-08-21T19:38:02.212Z,99.90
2022-08-21T19:40:28.909Z,99.90
2022-08-21T19:42:55.660Z,99.90
2022-08-21T19:45:22.421Z,99.90
2022-08-21T19:47:55.575Z,99.90
2022-08-21T19:50:25.524Z,99.90
2022-08-21T19:52:52.198Z,99.90
2022-08-21T19:55:20.303Z,99.90
2022-08-21T19:57:50.306Z,99.90
2022-08-21T20:00:18.013Z,99.90
2022-08-21T20:02:48.150Z,99.90
2022-08-21T20:05:15.546Z,99.90
2022-08-21T20:07:45.217Z,99.90
2022-08-21T20:10:13.240Z,99.90
2022-08-21T20:12:41.106Z,99.90
2022-08-21T20:15:08.722Z,99.90
2022-08-21T20:17:35.887Z,99.90
2022-08-21T20:20:02.834Z,99.90
2022-08-21T20:22:29.527Z,99.90
2022-08-21T20:24:56.199Z,99.90
2022-08-21T20:27:24.562Z,99.90
2022-08-21T20:29:51.417Z,99.90
2022-08-21T20:32:18.085Z,99.90
2022-08-21T20:34:45.442Z,99.90
2022-08-21T20:37:12.455Z,99.90
2022-08-21T20:39:39.209Z,99.90
2022-08-21T20:42:08.820Z,99.90
2022-08-21T20:44:35.978Z,99.90
2022-08-21T20:47:09.032Z,99.90
2022-08-21T20:49:40.837Z,99.90
2022-08-21T20:52:07.809Z,99.90
2022-08-21T20:54:44.106Z,99.90
2022-08-21T20:57:24.181Z,99.90
2022-08-21T20:59:56.403Z,99.90
2022-08-21T21:02:23.164Z,99.90
2022-08-21T21:04:55.179Z,99.90
2022-08-21T21:07:25.591Z,99.90
2022-08-21T21:09:55.206Z,99.90
2022-08-21T21:12:33.633Z,99.90
2022-08-21T21:15:05.471Z,99.90
2022-08-21T21:17:39.197Z,99.90
2022-08-21T21:20:10.103Z,99.90
2022-08-21T21:22:47.988Z,99.90
2022-08-21T21:25:14.753Z,99.90
2022-08-21T21:28:04.279Z,99.90
2022-08-21T21:30:34.745Z,99.90
2022-08-21T21:33:03.142Z,99.90
2022-08-21T21:35:36.540Z,99.90
2022-08-21T21:38:17.578Z,99.90
2022-08-21T21:40:44.247Z,99.90
2022-08-21T21:43:13.967Z,99.90
2022-08-21T21:45:47.892Z,99.90
2022-08-21T21:48:47.922Z,99.90
2022-08-21T21:51:20.890Z,99.90
2022-08-21T21:53:51.627Z,99.90
2022-08-21T21:56:21.467Z,99.90
2022-08-21T21:59:06.692Z,99.90
2022-08-21T22:01:45.896Z,99.90
2022-08-21T22:04:12.576Z,99.90
2022-08-21T22:06:51.318Z,99.90
2022-08-21T22:09:38.446Z,99.90
2022-08-21T22:12:23.807Z,99.90
2022-08-21T22:14:51.547Z,99.90
2022-08-21T22:17:24.299Z,99.90
2022-08-21T22:19:52.568Z,99.90
2022-08-21T22:22:21.099Z,99.90
2022-08-21T22:24:50.374Z,99.90
2022-08-21T22:27:27.487Z,99.90
2022-08-21T22:29:55.982Z,99.90
2022-08-21T22:32:27.469Z,99.90
2022-08-21T22:35:23.630Z,99.90
2022-08-21T22:37:54.754Z,99.90
2022-08-21T22:40:26.246Z,99.90
2022-08-21T22:43:01.022Z,99.90
2022-08-21T22:45:30.720Z,99.90
2022-08-21T22:48:03.420Z,99.90
2022-08-21T22:50:30.968Z,99.90
2022-08-21T22:53:00.440Z,99.90
2022-08-21T22:55:38.794Z,99.90
2022-08-21T22:58:19.050Z,99.90
2022-08-21T23:00:51.965Z,99.90
2022-08-21T23:03:24.694Z,99.90
2022-08-21T23:05:52.056Z,99.90
2022-08-21T23:08:25.280Z,99.90
2022-08-21T23:10:57.994Z,99.90
2022-08-21T23:13:24.730Z,99.90
2022-08-21T23:16:06.438Z,99.90
2022-08-21T23:18:42.729Z,99.90
2022-08-21T23:21:21.621Z,99.90
2022-08-21T23:24:02.845Z,99.90
2022-08-21T23:26:37.494Z,99.90
2022-08-21T23:29:13.968Z,99.90
2022-08-21T23:32:13.399Z,99.90
2022-08-21T23:34:45.274Z,99.90
2022-08-21T23:37:49.353Z,99.90
2022-08-21T23:40:36.861Z,99.90
2022-08-21T23:43:22.779Z,99.90
2022-08-21T23:46:00.180Z,99.90
2022-08-21T23:48:45.457Z,99.90
2022-08-21T23:51:12.123Z,99.90
2022-08-21T23:53:50.363Z,99.90
2022-08-21T23:56:26.186Z,99.90
2022-08-21T23:59:03.251Z,99.90
